createdAt,value
2022-07-29T00:01:46.269Z,99.9
2022-07-29T00:05:50.536Z,99.9
2022-07-29T00:07:52.649Z,99.9
2022-07-29T00:09:54.792Z,99.9
2022-07-29T00:11:56.900Z,99.9
2022-07-29T00:13:59.009Z,99.9
2022-07-29T00:16:04.943Z,99.9
2022-07-29T00:20:08.553Z,99.9
2022-07-29T00:22:10.665Z,99.9
2022-07-29T00:24:13.235Z,99.9
2022-07-29T00:26:15.052Z,99.9
2022-07-29T00:28:16.999Z,99.9
2022-07-29T00:30:22.305Z,99.9
2022-07-29T00:32:24.421Z,99.9
2022-07-29T00:34:26.542Z,99.9
2022-07-29T00:37:31.332Z,99.9
2022-07-29T00:39:33.428Z,99.9
2022-07-29T00:41:35.553Z,99.9
2022-07-29T00:43:40.809Z,99.9
2022-07-29T00:45:42.935Z,99.9
2022-07-29T00:47:45.056Z,99.9
2022-07-29T00:49:47.156Z,99.9
2022-07-29T00:51:49.281Z,99.9
2022-07-29T00:53:51.422Z,99.9
2022-07-29T00:55:53.522Z,99.9
2022-07-29T01:00:01.017Z,99.9
2022-07-29T01:02:03.250Z,99.9
2022-07-29T01:04:05.271Z,99.9
2022-07-29T01:10:11.657Z,99.9
2022-07-29T01:12:16.911Z,99.9
2022-07-29T01:14:19.057Z,99.9
2022-07-29T01:16:21.185Z,99.9
2022-07-29T01:26:35.030Z,99.9
2022-07-29T01:31:58.757Z,99.9
2022-07-29T01:33:44.135Z,99.9
2022-07-29T01:35:46.252Z,99.9
2022-07-29T01:37:48.364Z,99.9
2022-07-29T01:39:53.738Z,99.9
2022-07-29T01:41:55.959Z,99.9
2022-07-29T01:46:00.292Z,99.9
2022-07-29T01:48:02.409Z,99.9
2022-07-29T01:50:04.544Z,99.9
2022-07-29T01:52:06.644Z,99.9
2022-07-29T01:54:11.932Z,99.9
2022-07-29T01:56:14.042Z,99.9
2022-07-29T01:58:16.168Z,99.9
2022-07-29T02:00:18.308Z,99.9
2022-07-29T02:02:20.445Z,99.9
2022-07-29T02:04:29.239Z,99.9
2022-07-29T02:06:24.665Z,99.9
2022-07-29T02:08:29.910Z,99.9
2022-07-29T02:10:32.028Z,99.9
2022-07-29T02:12:34.164Z,99.9
2022-07-29T02:14:36.308Z,99.9
2022-07-29T02:16:38.524Z,99.9
2022-07-29T02:20:42.667Z,99.9
2022-07-29T02:22:47.925Z,99.9
2022-07-29T02:24:50.056Z,99.9
2022-07-29T02:26:52.180Z,99.9
2022-07-29T02:31:23.066Z,99.9
2022-07-29T02:33:25.130Z,99.9
2022-07-29T02:35:34.925Z,99.9
2022-07-29T02:37:32.504Z,99.9
2022-07-29T02:39:34.638Z,99.9
2022-07-29T02:41:36.783Z,99.9
2022-07-29T02:43:38.900Z,99.9
2022-07-29T02:47:43.238Z,99.9
2022-07-29T02:49:48.508Z,99.9
2022-07-29T02:51:50.629Z,99.9
2022-07-29T02:53:52.754Z,99.9
2022-07-29T02:55:54.881Z,99.9
2022-07-29T02:57:56.997Z,99.9
2022-07-29T02:59:59.138Z,99.9
2022-07-29T03:02:01.362Z,99.9
2022-07-29T03:04:06.564Z,99.9
2022-07-29T03:06:08.652Z,99.9
2022-07-29T03:10:13.758Z,99.9
2022-07-29T03:12:15.029Z,99.9
2022-07-29T03:14:17.540Z,99.9
2022-07-29T03:16:19.365Z,99.9
2022-07-29T03:18:24.538Z,99.9
2022-07-29T03:20:26.666Z,99.9
2022-07-29T03:25:33.758Z,99.9
2022-07-29T03:27:35.899Z,99.9
2022-07-29T03:31:43.723Z,99.9
2022-07-29T03:33:45.412Z,99.9
2022-07-29T03:35:47.522Z,99.9
2022-07-29T03:37:49.661Z,99.9
2022-07-29T03:39:51.885Z,99.9
2022-07-29T03:41:54.000Z,99.9
2022-07-29T03:43:56.212Z,99.9
2022-07-29T03:48:03.607Z,99.9
2022-07-29T03:50:05.730Z,99.9
2022-07-29T03:54:10.431Z,99.9
2022-07-29T03:56:12.103Z,99.9
2022-07-29T03:58:14.233Z,99.9
2022-07-29T04:02:24.405Z,99.9
2022-07-29T04:06:25.845Z,99.9
2022-07-29T04:12:32.200Z,99.9
2022-07-29T04:16:39.767Z,99.9
2022-07-29T04:19:44.482Z,99.9
2022-07-29T04:21:46.610Z,99.9
2022-07-29T04:23:53.807Z,99.9
2022-07-29T04:38:06.961Z,99.9
2022-07-29T04:48:26.700Z,99.9
2022-07-29T04:50:24.288Z,99.9
2022-07-29T04:56:34.007Z,99.9
2022-07-29T04:58:36.145Z,99.9
2022-07-29T05:04:42.724Z,99.9
2022-07-29T05:10:52.322Z,99.9
2022-07-29T05:12:54.539Z,99.9
2022-07-29T05:14:56.657Z,99.9
2022-07-29T05:18:01.499Z,99.9
2022-07-29T05:20:03.732Z,99.9
2022-07-29T05:22:05.979Z,99.9
2022-07-29T05:26:13.555Z,99.9
2022-07-29T05:28:15.673Z,99.9
2022-07-29T05:30:17.895Z,99.9
2022-07-29T05:32:20.000Z,99.9
2022-07-29T05:34:22.107Z,99.9
2022-07-29T05:36:24.236Z,99.9
2022-07-29T05:42:33.989Z,99.9
2022-07-29T05:44:36.187Z,99.9
2022-07-29T05:46:38.504Z,99.9
2022-07-29T05:50:44.079Z,99.9
2022-07-29T05:58:54.543Z,99.9
2022-07-29T06:00:56.737Z,99.9
2022-07-29T06:07:06.233Z,99.9
2022-07-29T06:13:39.226Z,99.9
2022-07-29T06:15:41.395Z,99.9
2022-07-29T06:17:59.165Z,99.9
2022-07-29T06:19:48.828Z,99.9
2022-07-29T06:21:51.052Z,99.9
2022-07-29T06:23:53.268Z,99.9
2022-07-29T06:25:55.469Z,99.9
2022-07-29T06:27:57.596Z,99.9
2022-07-29T06:29:59.702Z,99.9
2022-07-29T06:32:01.842Z,99.9
2022-07-29T06:34:07.085Z,99.9
2022-07-29T06:36:09.228Z,99.9
2022-07-29T06:38:29.898Z,99.9
2022-07-29T06:40:13.466Z,99.9
2022-07-29T06:42:15.554Z,99.9
2022-07-29T06:44:18.202Z,99.9
2022-07-29T06:48:25.140Z,99.9
2022-07-29T06:50:27.248Z,99.9
2022-07-29T06:52:29.377Z,99.9
2022-07-29T06:54:31.505Z,99.9
2022-07-29T06:56:38.376Z,99.9
2022-07-29T06:58:35.705Z,99.9
2022-07-29T07:02:43.177Z,99.9
2022-07-29T07:06:47.486Z,99.9
2022-07-29T07:09:52.098Z,99.9
2022-07-29T07:11:54.241Z,99.9
2022-07-29T07:14:00.784Z,99.9
2022-07-29T07:16:01.615Z,99.9
2022-07-29T07:18:03.739Z,99.9
2022-07-29T07:20:05.863Z,99.9
2022-07-29T07:22:07.972Z,99.9
2022-07-29T07:24:10.159Z,99.9
2022-07-29T07:26:12.267Z,99.9
2022-07-29T07:28:14.424Z,99.9
2022-07-29T07:30:19.680Z,99.9
2022-07-29T07:32:21.877Z,99.9
2022-07-29T07:34:28.407Z,99.9
2022-07-29T07:36:26.091Z,99.9
2022-07-29T07:38:28.189Z,99.9
2022-07-29T07:40:30.291Z,99.9
2022-07-29T07:42:32.425Z,99.9
2022-07-29T07:44:57.332Z,99.9
2022-07-29T07:46:39.832Z,99.9
2022-07-29T07:48:42.018Z,99.9
2022-07-29T07:50:44.108Z,99.9
2022-07-29T07:52:46.205Z,99.9
2022-07-29T07:54:48.349Z,99.9
2022-07-29T07:56:53.150Z,99.9
2022-07-29T07:58:55.713Z,99.9
2022-07-29T08:00:57.967Z,99.9
2022-07-29T08:03:00.035Z,99.9
2022-07-29T08:04:02.628Z,99.9
2022-07-29T08:06:04.874Z,99.9
2022-07-29T08:08:06.865Z,99.9
2022-07-29T08:10:08.991Z,99.9
2022-07-29T08:12:14.292Z,99.9
2022-07-29T08:18:20.610Z,99.9
2022-07-29T08:20:22.735Z,99.9
2022-07-29T08:22:24.844Z,99.9
2022-07-29T08:24:26.981Z,99.9
2022-07-29T08:26:32.248Z,99.9
2022-07-29T08:28:34.357Z,99.9
2022-07-29T08:30:36.498Z,99.9
2022-07-29T08:32:53.222Z,99.9
2022-07-29T08:34:40.763Z,99.9
2022-07-29T08:36:43.079Z,99.9
2022-07-29T08:38:45.023Z,99.9
2022-07-29T08:40:50.300Z,99.9
2022-07-29T08:42:52.392Z,99.9
2022-07-29T08:44:54.540Z,99.9
2022-07-29T08:46:56.650Z,99.9
2022-07-29T08:48:58.843Z,99.9
2022-07-29T08:53:03.026Z,99.9
2022-07-29T08:55:08.319Z,99.9
2022-07-29T08:57:10.428Z,99.9
2022-07-29T08:59:12.543Z,99.9
2022-07-29T09:00:15.186Z,99.9
2022-07-29T09:02:17.331Z,99.9
2022-07-29T09:04:19.468Z,99.9
2022-07-29T09:06:21.564Z,99.9
2022-07-29T09:08:26.840Z,99.9
2022-07-29T09:10:28.958Z,99.9
2022-07-29T09:14:33.206Z,99.9
2022-07-29T09:16:52.377Z,99.9
2022-07-29T09:18:37.446Z,99.9
2022-07-29T09:22:44.856Z,99.9
2022-07-29T09:26:49.265Z,99.9
2022-07-29T09:28:51.205Z,99.9
2022-07-29T09:30:53.334Z,99.9
2022-07-29T09:32:55.439Z,99.9
2022-07-29T09:34:58.558Z,99.9
2022-07-29T09:37:02.858Z,99.9
2022-07-29T09:39:04.957Z,99.9
2022-07-29T09:41:07.153Z,99.9
2022-07-29T09:47:13.519Z,99.9
2022-07-29T09:49:15.588Z,99.9
2022-07-29T09:53:22.924Z,99.9
2022-07-29T09:57:53.712Z,99.9
2022-07-29T10:01:58.209Z,99.9
2022-07-29T10:04:03.237Z,99.9
2022-07-29T10:08:07.443Z,99.9
2022-07-29T10:10:09.571Z,99.9
2022-07-29T10:12:11.680Z,99.9
2022-07-29T10:14:13.774Z,99.9
2022-07-29T10:16:16.019Z,99.9
2022-07-29T10:18:21.188Z,99.9
2022-07-29T10:20:23.296Z,99.9
2022-07-29T10:22:51.476Z,99.9
2022-07-29T10:24:27.500Z,99.9
2022-07-29T10:26:29.606Z,99.9
2022-07-29T10:30:33.828Z,99.9
2022-07-29T10:34:41.211Z,99.9
2022-07-29T10:40:49.073Z,99.9
2022-07-29T10:42:51.208Z,99.9
2022-07-29T10:44:53.299Z,99.9
2022-07-29T10:46:58.633Z,99.9
2022-07-29T10:49:00.805Z,99.9
2022-07-29T10:51:03.946Z,99.9
2022-07-29T10:54:07.434Z,99.9
2022-07-29T10:56:13.406Z,99.9
2022-07-29T10:58:11.675Z,99.9
2022-07-29T11:00:17.349Z,99.9
2022-07-29T11:02:40.879Z,99.9
2022-07-29T11:04:21.152Z,99.9
2022-07-29T11:06:28.004Z,99.9
2022-07-29T11:08:27.636Z,99.9
2022-07-29T11:10:31.283Z,99.9
2022-07-29T11:12:29.581Z,99.9
2022-07-29T11:14:34.843Z,99.9
2022-07-29T11:16:36.963Z,99.9
2022-07-29T11:18:39.056Z,99.9
2022-07-29T11:20:41.191Z,99.9
2022-07-29T11:22:46.043Z,99.9
2022-07-29T11:24:49.409Z,99.9
2022-07-29T11:26:47.678Z,99.9
2022-07-29T11:28:52.771Z,99.9
2022-07-29T11:30:54.878Z,99.9
2022-07-29T11:32:56.982Z,99.9
2022-07-29T11:34:59.121Z,99.9
2022-07-29T11:43:10.674Z,99.9
2022-07-29T11:50:19.631Z,99.9
2022-07-29T11:52:21.742Z,99.9
2022-07-29T11:56:29.160Z,99.9
2022-07-29T12:00:33.336Z,99.9
2022-07-29T12:02:37.810Z,99.9
2022-07-29T12:04:37.540Z,99.9
2022-07-29T12:06:39.616Z,99.9
2022-07-29T12:08:41.736Z,99.9
2022-07-29T12:10:46.994Z,99.9
2022-07-29T12:12:49.076Z,99.9
2022-07-29T12:14:51.185Z,99.9
2022-07-29T12:16:53.339Z,99.9
2022-07-29T12:18:55.351Z,99.9
2022-07-29T12:20:57.512Z,99.9
2022-07-29T12:22:59.616Z,99.9
2022-07-29T12:25:31.867Z,99.9
2022-07-29T12:27:07.017Z,99.9
2022-07-29T12:29:15.406Z,99.9
2022-07-29T12:31:11.195Z,99.9
2022-07-29T12:33:13.242Z,99.9
2022-07-29T12:35:15.333Z,99.9
2022-07-29T12:37:17.414Z,99.8
2022-07-29T12:39:22.669Z,99.8
2022-07-29T12:41:24.753Z,99.8
2022-07-29T12:43:26.853Z,99.8
2022-07-29T12:46:31.596Z,99.9
2022-07-29T12:50:35.731Z,99.8
2022-07-29T12:52:40.983Z,99.3
2022-07-29T12:54:43.072Z,99.2
2022-07-29T12:56:45.598Z,99.1
2022-07-29T12:58:51.112Z,99.1
2022-07-29T13:00:49.380Z,99
2022-07-29T13:02:51.398Z,99
2022-07-29T13:04:53.454Z,99.1
2022-07-29T13:06:58.698Z,98.3
2022-07-29T13:09:00.796Z,98.1
2022-07-29T13:11:02.823Z,97.8
2022-07-29T13:13:04.914Z,97.4
2022-07-29T13:15:06.984Z,97.1
2022-07-29T13:17:09.075Z,96.9
2022-07-29T13:19:11.097Z,96.6
2022-07-29T13:21:16.528Z,96
2022-07-29T13:23:18.422Z,96
2022-07-29T13:25:20.466Z,95.9
2022-07-29T13:27:22.517Z,96.1
2022-07-29T13:29:26.572Z,96.2
2022-07-29T13:31:26.651Z,96.4
2022-07-29T13:33:28.696Z,96.7
2022-07-29T13:35:33.935Z,96.9
2022-07-29T13:37:36.003Z,96.9
2022-07-29T13:39:38.055Z,96.9
2022-07-29T13:42:10.529Z,96.8
2022-07-29T13:44:08.670Z,96.6
2022-07-29T13:46:10.785Z,96.3
2022-07-29T13:50:18.010Z,95.6
2022-07-29T13:52:20.058Z,95.2
2022-07-29T13:54:22.105Z,94.9
2022-07-29T14:00:28.294Z,94.1
2022-07-29T14:06:37.642Z,93.7
2022-07-29T14:08:39.643Z,93.6
2022-07-29T14:16:52.416Z,92.9
2022-07-29T14:20:55.068Z,93.1
2022-07-29T14:22:57.153Z,92.8
2022-07-29T14:24:59.173Z,92.9
2022-07-29T14:27:01.204Z,93
2022-07-29T14:29:03.245Z,92.8
2022-07-29T14:33:10.486Z,92.4
2022-07-29T14:35:12.542Z,92.2
2022-07-29T14:36:15.105Z,91.8
2022-07-29T14:38:17.161Z,91.6
2022-07-29T14:42:21.207Z,89.9
2022-07-29T14:44:26.387Z,87.9
2022-07-29T14:50:32.463Z,86.7
2022-07-29T14:52:34.446Z,86.3
2022-07-29T14:56:46.688Z,84.8
2022-07-29T14:58:51.600Z,83.9
2022-07-29T15:00:45.712Z,83.6
2022-07-29T15:03:01.328Z,82.2
2022-07-29T15:04:49.586Z,81
2022-07-29T15:06:51.597Z,80.2
2022-07-29T15:08:53.559Z,80
2022-07-29T15:10:55.507Z,79.8
2022-07-29T15:13:00.696Z,79
2022-07-29T15:17:04.736Z,76.4
2022-07-29T15:19:06.534Z,74.1
2022-07-29T15:27:17.439Z,71.4
2022-07-29T15:29:19.351Z,70.9
2022-07-29T15:31:21.380Z,71
2022-07-29T15:32:23.832Z,70.8
2022-07-29T15:36:50.733Z,71.2
2022-07-29T15:38:29.536Z,71.2
2022-07-29T15:42:36.517Z,70.6
2022-07-29T15:44:38.393Z,70.3
2022-07-29T15:48:42.226Z,70.6
2022-07-29T15:54:50.986Z,70.8
2022-07-29T15:56:52.868Z,70.7
2022-07-29T15:58:54.731Z,70.7
2022-07-29T16:00:56.645Z,70.7
2022-07-29T16:02:58.507Z,71.5
2022-07-29T16:09:07.386Z,71.2
2022-07-29T16:11:09.288Z,70.7
2022-07-29T16:13:11.161Z,70.3
2022-07-29T16:15:13.111Z,70
2022-07-29T16:21:18.708Z,69.4
2022-07-29T16:27:31.404Z,70.1
2022-07-29T16:28:31.726Z,71
2022-07-29T16:30:33.578Z,71.5
2022-07-29T16:32:35.479Z,73.2
2022-07-29T16:34:37.411Z,73.1
2022-07-29T16:42:48.381Z,77.4
2022-07-29T16:44:50.350Z,79.1
2022-07-29T16:46:52.318Z,80.6
2022-07-29T16:50:59.474Z,82.4
2022-07-29T16:53:01.466Z,83.3
2022-07-29T16:55:03.457Z,84.3
2022-07-29T16:57:05.463Z,84.7
2022-07-29T16:59:07.485Z,85.1
2022-07-29T17:01:09.702Z,85.8
2022-07-29T17:03:11.551Z,86.1
2022-07-29T17:05:16.725Z,87.3
2022-07-29T17:07:18.750Z,87.8
2022-07-29T17:09:20.785Z,88.1
2022-07-29T17:11:22.821Z,88.5
2022-07-29T17:13:24.869Z,88.9
2022-07-29T17:15:26.913Z,89.1
2022-07-29T17:17:39.269Z,89.5
2022-07-29T17:19:34.249Z,90
2022-07-29T17:21:36.241Z,90.1
2022-07-29T17:23:38.288Z,90.3
2022-07-29T17:28:08.910Z,90.4
2022-07-29T17:30:10.973Z,90.4
2022-07-29T17:32:16.185Z,90.5
2022-07-29T17:34:18.263Z,90.5
2022-07-29T17:36:20.313Z,90.7
2022-07-29T17:38:22.369Z,90.9
2022-07-29T17:40:24.434Z,91.2
2022-07-29T17:42:26.487Z,91.5
2022-07-29T17:44:28.571Z,91.8
2022-07-29T17:46:33.843Z,92.3
2022-07-29T17:48:35.872Z,92.4
2022-07-29T17:50:37.952Z,92.6
2022-07-29T17:52:39.999Z,92.8
2022-07-29T17:54:42.258Z,92.9
2022-07-29T17:56:44.330Z,93.1
2022-07-29T17:58:46.381Z,93.2
2022-07-29T18:00:51.691Z,93.6
2022-07-29T18:02:53.752Z,93.9
2022-07-29T18:04:55.773Z,94.3
2022-07-29T18:06:58.047Z,94.7
2022-07-29T18:08:59.923Z,95.3
2022-07-29T18:11:01.982Z,95.7
2022-07-29T18:13:04.059Z,96.1
2022-07-29T18:15:09.306Z,96.6
2022-07-29T18:17:11.410Z,96.8
2022-07-29T18:20:16.088Z,97
2022-07-29T18:22:18.165Z,97.2
2022-07-29T18:24:20.280Z,97.4
2022-07-29T18:26:22.299Z,97.6
2022-07-29T18:28:27.553Z,98
2022-07-29T18:30:29.629Z,98.1
2022-07-29T18:32:31.701Z,98.2
2022-07-29T18:34:33.786Z,98.3
2022-07-29T18:36:35.854Z,98.4
2022-07-29T18:38:37.945Z,98.5
2022-07-29T18:40:40.020Z,98.5
2022-07-29T18:42:45.267Z,98.8
2022-07-29T18:44:49.179Z,98.8
2022-07-29T18:46:49.520Z,98.8
2022-07-29T18:48:51.601Z,98.9
2022-07-29T18:50:53.634Z,98.9
2022-07-29T18:52:55.699Z,98.9
2022-07-29T18:54:57.790Z,98.9
2022-07-29T18:57:54.834Z,99
2022-07-29T18:59:05.122Z,99.1
2022-07-29T19:01:07.258Z,99.2
2022-07-29T19:03:09.389Z,99.4
2022-07-29T19:05:11.416Z,99.4
2022-07-29T19:07:13.521Z,99.5
2022-07-29T19:09:15.609Z,99.5
2022-07-29T19:11:20.873Z,99.5
2022-07-29T19:13:22.981Z,99.4
2022-07-29T19:15:25.050Z,99.4
2022-07-29T19:16:27.755Z,99.4
2022-07-29T19:18:29.786Z,99.3
2022-07-29T19:20:31.877Z,99.3
2022-07-29T19:24:39.272Z,99.2
2022-07-29T19:26:41.369Z,99.2
2022-07-29T19:30:45.573Z,99.2
2022-07-29T19:32:47.664Z,99.2
2022-07-29T19:34:49.877Z,99.3
2022-07-29T19:36:51.865Z,99.4
2022-07-29T19:38:57.020Z,99.7
2022-07-29T19:40:59.072Z,99.8
2022-07-29T19:43:01.185Z,99.9
2022-07-29T19:49:07.568Z,99.9
2022-07-29T19:51:09.608Z,99.9
2022-07-29T19:55:16.997Z,99.9
2022-07-29T19:59:23.908Z,99.9
2022-07-29T20:01:23.420Z,99.9
2022-07-29T20:03:25.425Z,99.9
2022-07-29T20:05:27.826Z,99.9
2022-07-29T20:07:32.820Z,99.9
2022-07-29T20:09:34.936Z,99.9
2022-07-29T20:11:37.106Z,99.9
2022-07-29T20:26:57.861Z,99.9
2022-07-29T20:33:03.990Z,99.9
2022-07-29T20:43:17.759Z,99.9
2022-07-29T20:49:27.320Z,99.9
2022-07-29T20:51:29.374Z,99.9
2022-07-29T20:53:31.471Z,99.9
2022-07-29T20:55:33.606Z,99.9
2022-07-29T20:57:38.983Z,99.9
2022-07-29T20:59:38.612Z,99.9
2022-07-29T21:01:39.995Z,99.9
2022-07-29T21:03:45.230Z,99.9
2022-07-29T21:05:47.360Z,99.9
2022-07-29T21:07:49.486Z,99.9
2022-07-29T21:16:27.602Z,99.9
2022-07-29T21:18:29.634Z,99.9
2022-07-29T21:24:36.016Z,99.9
2022-07-29T21:26:38.125Z,99.9
2022-07-29T21:36:51.928Z,99.9
2022-07-29T21:38:54.023Z,99.9
2022-07-29T21:40:56.167Z,99.9
2022-07-29T21:42:58.292Z,99.9
2022-07-29T21:45:03.560Z,99.9
2022-07-29T21:47:05.703Z,99.9
2022-07-29T21:49:07.845Z,99.9
2022-07-29T21:53:13.860Z,99.9
2022-07-29T21:55:14.213Z,99.9
2022-07-29T21:57:16.321Z,99.9
2022-07-29T21:59:21.612Z,99.9
2022-07-29T22:03:25.864Z,99.9
2022-07-29T22:06:30.646Z,99.9
2022-07-29T22:08:32.781Z,99.9
2022-07-29T22:16:44.462Z,99.9
2022-07-29T22:18:46.555Z,99.9
2022-07-29T22:24:54.451Z,99.9
2022-07-29T22:26:59.968Z,99.9
2022-07-29T22:33:06.112Z,99.9
2022-07-29T22:35:08.240Z,99.9
2022-07-29T22:37:10.365Z,99.9
2022-07-29T22:41:17.765Z,99.9
2022-07-29T22:43:19.913Z,99.9
2022-07-29T22:45:22.015Z,99.9
2022-07-29T22:47:39.043Z,99.9
2022-07-29T22:49:26.299Z,99.9
2022-07-29T22:51:28.417Z,99.9
2022-07-29T22:53:30.519Z,99.9
2022-07-29T22:55:35.806Z,99.9
2022-07-29T22:57:37.920Z,99.9
2022-07-29T22:59:40.017Z,99.9
2022-07-29T23:02:44.801Z,99.9
2022-07-29T23:04:46.914Z,99.9
2022-07-29T23:08:54.323Z,99.9
2022-07-29T23:12:58.560Z,99.9
2022-07-29T23:15:00.707Z,99.9
2022-07-29T23:17:03.222Z,99.9
2022-07-29T23:19:04.955Z,99.9
2022-07-29T23:21:07.084Z,99.9
2022-07-29T23:23:12.379Z,99.9
2022-07-29T23:25:14.928Z,99.9
2022-07-29T23:27:16.879Z,99.9
2022-07-29T23:29:18.994Z,99.9
2022-07-29T23:31:21.206Z,99.9
2022-07-29T23:33:23.253Z,99.9
2022-07-29T23:35:25.370Z,99.9
2022-07-29T23:37:30.669Z,99.9
2022-07-29T23:39:32.798Z,99.9
2022-07-29T23:41:34.945Z,99.9
2022-07-29T23:43:37.042Z,99.9
2022-07-29T23:45:44.760Z,99.9
2022-07-29T23:47:41.286Z,99.9
2022-07-29T23:49:43.404Z,99.9
2022-07-29T23:51:48.670Z,99.9
2022-07-29T23:53:53.830Z,99.9
2022-07-29T23:55:52.900Z,99.9
2022-07-29T23:56:55.546Z,99.9
2022-07-29T23:58:57.659Z,99.9
